createdAt,value
2019-02-23T00:01:55.610Z,87.57
2019-02-23T00:04:27.393Z,80.23
2019-02-23T00:06:59.074Z,70.30
2019-02-23T00:09:30.816Z,82.73
2019-02-23T00:12:04.573Z,74.03
2019-02-23T00:14:36.039Z,79.37
2019-02-23T00:17:07.813Z,76.80
2019-02-23T00:19:39.673Z,74.97
2019-02-23T00:22:11.457Z,84.30
2019-02-23T00:24:43.191Z,84.27
2019-02-23T00:27:15.035Z,80.40
2019-02-23T00:29:46.827Z,79.13
2019-02-23T00:32:18.510Z,84.77
2019-02-23T00:34:50.197Z,79.77
2019-02-23T00:37:21.941Z,84.00
2019-02-23T00:39:53.657Z,83.67
2019-02-23T00:42:25.779Z,82.77
2019-02-23T00:44:57.463Z,92.47
2019-02-23T00:47:29.133Z,82.37
2019-02-23T00:50:00.838Z,96.93
2019-02-23T00:52:32.537Z,84.70
2019-02-23T00:55:04.264Z,85.40
2019-02-23T00:57:35.970Z,98.03
2019-02-23T01:00:09.933Z,84.23
2019-02-23T01:02:41.748Z,87.63
2019-02-23T01:05:13.947Z,90.67
2019-02-23T01:07:45.665Z,94.23
2019-02-23T01:10:19.424Z,90.37
2019-02-23T01:12:50.962Z,85.07
2019-02-23T01:15:22.678Z,84.40
2019-02-23T01:17:54.455Z,103.50
2019-02-23T01:20:26.252Z,94.30
2019-02-23T01:22:57.948Z,97.67
2019-02-23T01:25:29.680Z,97.87
2019-02-23T01:28:01.394Z,88.43
2019-02-23T01:30:33.046Z,90.90
2019-02-23T01:33:04.800Z,94.57
2019-02-23T01:35:36.583Z,93.90
2019-02-23T01:38:08.389Z,90.50
2019-02-23T01:40:40.146Z,101.50
2019-02-23T01:43:11.855Z,95.47
2019-02-23T01:45:43.660Z,100.23
2019-02-23T01:48:15.418Z,100.57
2019-02-23T01:50:47.130Z,104.53
2019-02-23T01:53:18.852Z,117.23
2019-02-23T01:55:50.648Z,110.73
2019-02-23T01:58:22.367Z,101.40
2019-02-23T02:00:54.107Z,106.47
2019-02-23T02:03:26.033Z,103.30
2019-02-23T02:05:57.909Z,99.10
2019-02-23T02:08:29.838Z,122.50
2019-02-23T02:11:01.595Z,115.33
2019-02-23T02:13:33.411Z,108.13
2019-02-23T02:16:05.131Z,102.23
2019-02-23T02:18:37.045Z,122.63
2019-02-23T02:21:08.863Z,123.87
2019-02-23T02:23:40.608Z,118.93
2019-02-23T02:26:12.379Z,112.87
2019-02-23T02:28:44.211Z,120.60
2019-02-23T02:31:16.000Z,116.93
2019-02-23T02:34:10.997Z,126.00
2019-02-23T02:36:42.793Z,126.80
2019-02-23T02:39:15.829Z,123.80
2019-02-23T02:41:47.576Z,115.73
2019-02-23T02:44:19.362Z,124.30
2019-02-23T02:46:51.159Z,121.67
2019-02-23T02:49:23.300Z,134.87
2019-02-23T02:51:55.258Z,127.77
2019-02-23T02:54:27.061Z,122.20
2019-02-23T02:56:59.182Z,122.20
2019-02-23T02:59:30.900Z,112.97
2019-02-23T03:02:05.369Z,121.30
2019-02-23T03:04:37.126Z,109.00
2019-02-23T03:07:12.526Z,97.63
2019-02-23T03:09:44.289Z,110.87
2019-02-23T03:12:16.087Z,105.80
2019-02-23T03:14:47.885Z,109.70
2019-02-23T03:17:19.599Z,108.60
2019-02-23T03:19:51.279Z,105.97
2019-02-23T03:22:23.090Z,110.53
2019-02-23T03:24:54.796Z,105.63
2019-02-23T03:27:26.518Z,101.43
2019-02-23T03:29:58.307Z,98.10
2019-02-23T03:32:30.157Z,113.83
2019-02-23T03:35:01.851Z,111.60
2019-02-23T03:37:33.525Z,113.17
2019-02-23T03:40:05.803Z,114.93
2019-02-23T03:42:38.012Z,132.63
2019-02-23T03:45:09.806Z,104.30
2019-02-23T03:47:41.476Z,113.53
2019-02-23T03:50:13.183Z,121.40
2019-02-23T03:52:44.861Z,111.57
2019-02-23T03:55:16.679Z,122.97
2019-02-23T03:57:48.460Z,123.83
2019-02-23T04:00:20.217Z,114.27
2019-02-23T04:02:51.993Z,109.90
2019-02-23T04:05:23.785Z,104.07
2019-02-23T04:07:55.488Z,127.23
2019-02-23T04:10:27.185Z,124.97
2019-02-23T04:12:58.862Z,120.60
2019-02-23T04:15:30.542Z,121.83
2019-02-23T04:18:02.300Z,104.70
2019-02-23T04:20:33.999Z,113.77
2019-02-23T04:23:05.771Z,130.87
2019-02-23T04:25:37.484Z,115.70
2019-02-23T04:28:09.188Z,117.83
2019-02-23T04:30:40.961Z,115.83
2019-02-23T04:33:12.758Z,117.87
2019-02-23T04:35:46.504Z,106.37
2019-02-23T04:38:18.003Z,102.57
2019-02-23T04:40:49.782Z,105.40
2019-02-23T04:43:21.498Z,109.97
2019-02-23T04:45:53.264Z,109.80
2019-02-23T04:48:25.055Z,111.17
2019-02-23T04:50:56.736Z,106.87
2019-02-23T04:53:28.426Z,115.17
2019-02-23T04:56:00.115Z,108.33
2019-02-23T04:58:31.902Z,119.03
2019-02-23T05:01:03.600Z,109.63
2019-02-23T05:03:35.393Z,110.03
2019-02-23T05:06:07.094Z,111.17
2019-02-23T05:08:38.785Z,113.37
2019-02-23T05:11:10.898Z,98.13
2019-02-23T05:13:42.574Z,106.27
2019-02-23T05:16:14.250Z,111.57
2019-02-23T05:18:45.913Z,108.50
2019-02-23T05:21:26.003Z,109.40
2019-02-23T05:23:50.983Z,106.80
2019-02-23T05:26:22.737Z,109.17
2019-02-23T05:28:54.435Z,112.40
2019-02-23T05:31:26.109Z,99.60
2019-02-23T05:33:57.892Z,130.77
2019-02-23T05:36:29.567Z,106.27
2019-02-23T05:39:01.355Z,98.50
2019-02-23T05:41:33.113Z,105.47
2019-02-23T05:44:04.791Z,105.97
2019-02-23T05:46:36.492Z,114.27
2019-02-23T05:49:08.235Z,104.57
2019-02-23T05:51:40.002Z,111.10
2019-02-23T05:54:11.764Z,107.33
2019-02-23T05:56:43.486Z,108.07
2019-02-23T05:59:15.199Z,107.27
2019-02-23T06:01:47.139Z,123.97
2019-02-23T06:04:18.893Z,117.73
2019-02-23T06:06:50.673Z,118.40
2019-02-23T06:09:22.480Z,128.70
2019-02-23T06:11:54.225Z,129.13
2019-02-23T06:14:25.932Z,123.57
2019-02-23T06:16:57.690Z,115.27
2019-02-23T06:19:29.416Z,113.23
2019-02-23T06:22:01.088Z,125.63
2019-02-23T06:24:32.832Z,121.13
2019-02-23T06:27:04.583Z,108.50
2019-02-23T06:29:36.310Z,119.43
2019-02-23T06:32:08.006Z,104.17
2019-02-23T06:34:39.700Z,100.40
2019-02-23T06:37:11.465Z,106.57
2019-02-23T06:39:43.170Z,99.47
2019-02-23T06:42:14.876Z,109.40
2019-02-23T06:44:46.592Z,105.60
2019-02-23T06:47:18.370Z,107.87
2019-02-23T06:49:50.174Z,100.10
2019-02-23T06:52:21.852Z,94.30
2019-02-23T06:54:53.610Z,108.13
2019-02-23T06:57:25.836Z,95.20
2019-02-23T06:59:57.600Z,105.20
2019-02-23T07:02:29.319Z,89.07
2019-02-23T07:05:01.075Z,107.93
2019-02-23T07:07:32.857Z,115.10
2019-02-23T07:10:04.886Z,97.67
2019-02-23T07:12:36.575Z,93.97
2019-02-23T07:15:08.568Z,94.43
2019-02-23T07:17:40.262Z,87.10
2019-02-23T07:20:11.942Z,84.63
2019-02-23T07:22:43.635Z,78.93
2019-02-23T07:25:15.336Z,75.63
2019-02-23T07:27:47.033Z,50.23
2019-02-23T07:30:18.756Z,43.20
2019-02-23T07:32:50.445Z,41.50
2019-02-23T07:35:22.170Z,40.73
2019-02-23T07:37:54.026Z,38.63
2019-02-23T07:40:25.705Z,38.47
2019-02-23T07:42:57.499Z,42.30
2019-02-23T07:45:29.287Z,36.37
2019-02-23T07:48:01.041Z,34.27
2019-02-23T07:50:32.697Z,39.47
2019-02-23T07:53:04.480Z,32.53
2019-02-23T07:55:36.260Z,34.23
2019-02-23T07:58:07.997Z,39.27
2019-02-23T08:00:39.735Z,33.73
2019-02-23T08:03:12.022Z,29.80
2019-02-23T08:05:43.727Z,30.13
2019-02-23T08:08:15.456Z,28.83
2019-02-23T08:10:47.171Z,35.63
2019-02-23T08:13:18.847Z,34.90
2019-02-23T08:15:50.520Z,30.20
2019-02-23T08:18:23.396Z,35.00
2019-02-23T08:20:55.089Z,27.60
2019-02-23T08:23:26.785Z,30.70
2019-02-23T08:25:58.542Z,29.77
2019-02-23T08:28:30.422Z,29.67
2019-02-23T08:31:02.095Z,29.90
2019-02-23T08:33:33.840Z,32.70
2019-02-23T08:36:05.512Z,25.23
2019-02-23T08:38:37.212Z,28.00
2019-02-23T08:41:09.098Z,26.15
2019-02-23T08:43:40.799Z,25.48
2019-02-23T08:46:12.608Z,25.95
2019-02-23T08:48:44.282Z,26.93
2019-02-23T08:51:16.107Z,25.57
2019-02-23T08:53:47.767Z,29.65
2019-02-23T08:56:26.072Z,26.97
2019-02-23T08:58:57.731Z,21.33
2019-02-23T09:01:29.434Z,20.60
2019-02-23T09:04:01.087Z,22.80
2019-02-23T09:06:32.788Z,19.80
2019-02-23T09:09:05.332Z,21.27
2019-02-23T09:11:37.022Z,16.93
2019-02-23T09:14:08.816Z,20.03
2019-02-23T09:16:40.526Z,20.65
2019-02-23T09:19:12.227Z,24.12
2019-02-23T09:21:44.086Z,16.25
2019-02-23T09:24:15.786Z,20.45
2019-02-23T09:26:47.525Z,17.35
2019-02-23T09:29:19.195Z,15.53
2019-02-23T09:31:50.969Z,15.78
2019-02-23T09:34:22.645Z,15.15
2019-02-23T09:36:54.500Z,16.90
2019-02-23T09:39:26.191Z,15.55
2019-02-23T09:42:07.230Z,16.70
2019-02-23T09:44:31.349Z,16.77
2019-02-23T09:47:03.060Z,16.50
2019-02-23T09:49:34.789Z,12.53
2019-02-23T09:52:06.503Z,14.25
2019-02-23T09:54:39.409Z,14.33
2019-02-23T09:57:11.101Z,12.23
2019-02-23T09:59:42.779Z,15.18
2019-02-23T10:02:15.559Z,15.63
2019-02-23T10:04:47.673Z,12.40
2019-02-23T10:07:19.368Z,12.25
2019-02-23T10:09:51.060Z,12.23
2019-02-23T10:12:22.857Z,11.13
2019-02-23T10:14:54.566Z,11.35
2019-02-23T10:17:26.318Z,10.63
2019-02-23T10:19:58.026Z,9.35
2019-02-23T10:22:29.734Z,8.13
2019-02-23T10:25:01.461Z,20.73
2019-02-23T10:27:33.228Z,10.45
2019-02-23T10:30:05.456Z,11.73
2019-02-23T10:32:37.139Z,13.00
2019-02-23T10:35:10.067Z,10.93
2019-02-23T10:37:41.766Z,10.37
2019-02-23T10:40:13.715Z,12.57
2019-02-23T10:42:45.466Z,10.90
2019-02-23T10:45:17.174Z,10.13
2019-02-23T10:47:50.294Z,10.40
2019-02-23T10:50:22.151Z,14.65
2019-02-23T10:52:53.921Z,11.15
2019-02-23T10:55:25.675Z,8.53
2019-02-23T10:57:57.434Z,14.17
2019-02-23T11:00:29.553Z,12.13
2019-02-23T11:03:01.598Z,9.00
2019-02-23T11:05:33.352Z,11.50
2019-02-23T11:08:05.047Z,9.33
2019-02-23T11:10:36.857Z,12.50
2019-02-23T11:13:08.613Z,10.87
2019-02-23T11:15:40.402Z,13.68
2019-02-23T11:18:12.098Z,8.78
2019-02-23T11:20:52.341Z,11.47
2019-02-23T11:23:24.201Z,9.70
2019-02-23T11:25:56.759Z,10.98
2019-02-23T11:28:28.493Z,9.50
2019-02-23T11:31:00.578Z,10.10
2019-02-23T11:33:32.290Z,10.23
2019-02-23T11:36:04.009Z,9.17
2019-02-23T11:38:35.724Z,9.80
2019-02-23T11:41:07.591Z,11.80
2019-02-23T11:43:39.393Z,10.70
2019-02-23T11:46:11.151Z,9.80
2019-02-23T11:48:42.830Z,9.43
2019-02-23T11:51:14.881Z,11.63
2019-02-23T11:53:54.634Z,7.90
2019-02-23T11:56:20.562Z,10.78
2019-02-23T11:58:52.410Z,9.85
2019-02-23T12:01:24.547Z,10.97
2019-02-23T12:03:56.273Z,11.03
2019-02-23T12:06:28.028Z,9.85
2019-02-23T12:08:59.768Z,10.08
2019-02-23T12:11:31.476Z,8.15
2019-02-23T12:14:03.248Z,10.48
2019-02-23T12:16:35.032Z,9.25
2019-02-23T12:19:06.784Z,8.95
2019-02-23T12:21:38.487Z,11.12
2019-02-23T12:24:10.284Z,8.25
2019-02-23T12:26:42.035Z,7.58
2019-02-23T12:29:13.804Z,13.25
2019-02-23T12:31:45.546Z,10.80
2019-02-23T12:34:17.331Z,10.33
2019-02-23T12:36:49.054Z,8.90
2019-02-23T12:39:20.737Z,9.38
2019-02-23T12:41:52.506Z,9.48
2019-02-23T12:44:24.209Z,8.20
2019-02-23T12:46:55.904Z,10.28
2019-02-23T12:49:27.626Z,12.68
2019-02-23T12:51:59.322Z,12.05
2019-02-23T12:54:31.017Z,9.68
2019-02-23T12:57:02.836Z,13.40
2019-02-23T12:59:34.553Z,10.33
2019-02-23T13:02:06.235Z,11.15
2019-02-23T13:04:38.013Z,10.60
2019-02-23T13:07:09.739Z,10.08
2019-02-23T13:09:45.936Z,11.53
2019-02-23T13:13:23.203Z,11.97
2019-02-23T13:15:59.596Z,11.13
2019-02-23T13:19:18.619Z,13.00
2019-02-23T13:22:47.975Z,11.03
2019-02-23T13:25:43.198Z,10.27
2019-02-23T13:28:23.735Z,11.25
2019-02-23T13:31:23.885Z,11.90
2019-02-23T13:34:18.770Z,9.50
2019-02-23T13:37:14.680Z,12.43
2019-02-23T13:40:27.339Z,11.40
2019-02-23T13:43:39.042Z,8.48
2019-02-23T13:46:41.920Z,10.18
2019-02-23T13:49:39.152Z,10.35
2019-02-23T13:52:41.812Z,9.53
2019-02-23T13:56:02.880Z,9.48
2019-02-23T13:58:39.684Z,9.20
2019-02-23T14:01:52.770Z,10.90
2019-02-23T14:04:41.810Z,10.80
2019-02-23T14:07:41.960Z,11.10
2019-02-23T14:10:53.040Z,10.80
2019-02-23T14:14:15.117Z,8.93
2019-02-23T14:17:12.204Z,12.03
2019-02-23T14:20:20.138Z,10.18
2019-02-23T14:23:54.436Z,9.40
2019-02-23T14:26:55.795Z,8.38
2019-02-23T14:29:52.332Z,10.10
2019-02-23T14:32:56.900Z,9.40
2019-02-23T14:36:07.506Z,10.30
2019-02-23T14:39:41.878Z,8.15
2019-02-23T14:43:00.739Z,11.15
2019-02-23T14:46:29.060Z,10.57
2019-02-23T14:50:06.275Z,9.83
2019-02-23T14:53:15.328Z,9.33
2019-02-23T14:56:32.171Z,9.68
2019-02-23T14:59:31.157Z,12.63
2019-02-23T15:02:47.663Z,11.00
2019-02-23T15:05:48.267Z,9.30
2019-02-23T15:08:44.737Z,10.70
2019-02-23T15:11:50.472Z,9.73
2019-02-23T15:14:59.020Z,10.00
2019-02-23T15:18:33.353Z,10.63
2019-02-23T15:21:58.369Z,12.97
2019-02-23T15:25:12.709Z,11.77
2019-02-23T15:27:59.938Z,10.40
2019-02-23T15:31:00.254Z,9.63
2019-02-23T15:34:14.174Z,7.25
2019-02-23T15:37:14.089Z,8.30
2019-02-23T15:40:20.586Z,6.95
2019-02-23T15:43:30.453Z,7.75
2019-02-23T15:46:46.507Z,8.30
2019-02-23T15:49:32.271Z,8.20
2019-02-23T15:52:08.148Z,8.15
2019-02-23T15:54:39.922Z,8.13
2019-02-23T15:57:11.740Z,8.60
2019-02-23T15:59:44.459Z,11.47
2019-02-23T16:02:16.424Z,6.75
2019-02-23T16:04:48.205Z,6.87
2019-02-23T16:07:19.962Z,7.05
2019-02-23T16:09:51.660Z,9.03
2019-02-23T16:12:23.402Z,8.93
2019-02-23T16:14:55.104Z,10.90
2019-02-23T16:17:26.812Z,9.80
2019-02-23T16:19:58.525Z,9.90
2019-02-23T16:22:30.342Z,16.00
2019-02-23T16:25:02.141Z,10.13
2019-02-23T16:27:34.414Z,12.40
2019-02-23T16:30:06.782Z,11.68
2019-02-23T16:32:39.066Z,14.07
2019-02-23T16:35:10.800Z,11.53
2019-02-23T16:37:42.519Z,12.83
2019-02-23T16:40:14.341Z,12.35
2019-02-23T16:42:46.101Z,12.60
2019-02-23T16:45:17.831Z,10.65
2019-02-23T16:47:49.644Z,14.93
2019-02-23T16:50:21.467Z,12.07
2019-02-23T16:52:53.270Z,14.73
2019-02-23T16:55:25.189Z,11.33
2019-02-23T16:57:56.911Z,17.43
2019-02-23T17:00:28.625Z,11.90
2019-02-23T17:03:00.383Z,13.72
2019-02-23T17:05:32.139Z,15.93
2019-02-23T17:08:04.016Z,14.37
2019-02-23T17:10:36.146Z,19.53
2019-02-23T17:13:07.944Z,11.57
2019-02-23T17:15:39.792Z,14.10
2019-02-23T17:18:11.682Z,15.43
2019-02-23T17:20:43.579Z,16.07
2019-02-23T17:23:15.374Z,15.80
2019-02-23T17:25:47.110Z,13.23
2019-02-23T17:28:19.008Z,14.70
2019-02-23T17:30:50.777Z,17.07
2019-02-23T17:33:22.485Z,17.47
2019-02-23T17:35:54.204Z,17.77
2019-02-23T17:38:25.880Z,19.57
2019-02-23T17:40:57.573Z,20.33
2019-02-23T17:43:29.307Z,15.00
2019-02-23T17:46:01.114Z,14.73
2019-02-23T17:51:04.665Z,20.93
2019-02-23T17:53:36.435Z,20.83
2019-02-23T17:56:12.279Z,15.73
2019-02-23T17:58:41.708Z,18.23
2019-02-23T18:01:13.531Z,21.33
2019-02-23T18:03:45.311Z,19.70
2019-02-23T18:06:17.036Z,17.03
2019-02-23T18:08:48.859Z,19.13
2019-02-23T18:11:20.663Z,17.17
2019-02-23T18:13:52.429Z,16.43
2019-02-23T18:16:24.282Z,19.07
2019-02-23T18:18:57.543Z,17.10
2019-02-23T18:21:29.481Z,19.13
2019-02-23T18:24:01.343Z,19.13
2019-02-23T18:26:33.099Z,22.57
2019-02-23T18:29:04.776Z,24.50
2019-02-23T18:31:36.635Z,22.47
2019-02-23T18:34:08.484Z,21.43
2019-02-23T18:36:40.576Z,17.67
2019-02-23T18:39:12.336Z,18.13
2019-02-23T18:41:44.171Z,22.57
2019-02-23T18:44:15.987Z,20.90
2019-02-23T18:46:47.783Z,22.10
2019-02-23T18:49:19.478Z,19.93
2019-02-23T18:51:51.290Z,21.80
2019-02-23T18:54:23.032Z,20.57
2019-02-23T18:56:54.830Z,22.90
2019-02-23T18:59:26.594Z,21.97
2019-02-23T19:01:58.318Z,19.97
2019-02-23T19:04:30.025Z,23.93
2019-02-23T19:07:01.723Z,23.00
2019-02-23T19:09:33.407Z,25.60
2019-02-23T19:12:05.180Z,21.97
2019-02-23T19:14:36.901Z,20.10
2019-02-23T19:17:08.701Z,19.57
2019-02-23T19:19:40.425Z,26.03
2019-02-23T19:22:12.194Z,24.27
2019-02-23T19:24:43.966Z,24.13
2019-02-23T19:27:15.669Z,25.87
2019-02-23T19:29:47.338Z,25.37
2019-02-23T19:32:19.022Z,27.67
2019-02-23T19:34:50.790Z,26.50
2019-02-23T19:37:22.569Z,23.17
2019-02-23T19:39:54.276Z,22.03
2019-02-23T19:42:26.104Z,20.37
2019-02-23T19:44:57.911Z,27.33
2019-02-23T19:47:32.853Z,29.50
2019-02-23T19:50:11.837Z,33.90
2019-02-23T19:52:43.641Z,24.40
2019-02-23T19:55:16.529Z,20.27
2019-02-23T19:57:48.315Z,23.37
2019-02-23T20:00:20.097Z,23.73
2019-02-23T20:02:51.820Z,22.93
2019-02-23T20:05:23.650Z,28.83
2019-02-23T20:07:55.373Z,24.80
2019-02-23T20:10:27.115Z,25.60
2019-02-23T20:12:58.922Z,27.13
2019-02-23T20:15:30.603Z,26.33
2019-02-23T20:18:02.317Z,22.50
2019-02-23T20:20:33.984Z,30.73
2019-02-23T20:23:05.705Z,24.30
2019-02-23T20:25:37.410Z,24.90
2019-02-23T20:28:09.195Z,21.40
2019-02-23T20:30:40.933Z,23.83
2019-02-23T20:33:12.625Z,26.10
2019-02-23T20:35:44.339Z,26.53
2019-02-23T20:38:16.083Z,23.00
2019-02-23T20:40:47.756Z,22.57
2019-02-23T20:43:19.469Z,26.27
2019-02-23T20:45:51.237Z,25.43
2019-02-23T20:48:23.054Z,25.63
2019-02-23T20:50:54.902Z,26.73
2019-02-23T20:53:26.676Z,28.47
2019-02-23T20:55:58.376Z,23.60
2019-02-23T20:58:30.050Z,21.10
2019-02-23T21:01:01.824Z,23.10
2019-02-23T21:03:33.606Z,20.37
2019-02-23T21:06:05.366Z,23.27
2019-02-23T21:08:37.200Z,22.57
2019-02-23T21:11:09.035Z,24.80
2019-02-23T21:13:40.828Z,22.47
2019-02-23T21:16:12.579Z,22.17
2019-02-23T21:18:44.278Z,21.87
2019-02-23T21:21:15.991Z,21.83
2019-02-23T21:23:59.296Z,22.47
2019-02-23T21:26:30.993Z,25.30
2019-02-23T21:29:02.727Z,26.17
2019-02-23T21:31:34.441Z,24.70
2019-02-23T21:34:06.189Z,20.17
2019-02-23T21:36:37.907Z,21.00
2019-02-23T21:39:10.109Z,25.83
2019-02-23T21:41:41.905Z,24.10
2019-02-23T21:44:13.645Z,19.37
2019-02-23T21:46:45.383Z,22.33
2019-02-23T21:49:17.158Z,22.70
2019-02-23T21:51:48.843Z,23.37
2019-02-23T21:54:20.667Z,25.13
2019-02-23T21:56:52.358Z,22.03
2019-02-23T21:59:24.092Z,19.33
2019-02-23T22:01:55.911Z,23.33
2019-02-23T22:04:27.739Z,21.47
2019-02-23T22:06:59.472Z,22.40
2019-02-23T22:09:31.235Z,26.97
2019-02-23T22:12:02.976Z,21.63
2019-02-23T22:14:34.681Z,28.83
2019-02-23T22:17:06.353Z,27.67
2019-02-23T22:19:38.555Z,26.53
2019-02-23T22:22:10.254Z,24.77
2019-02-23T22:24:41.997Z,24.67
2019-02-23T22:27:13.909Z,24.10
2019-02-23T22:29:45.601Z,21.83
2019-02-23T22:32:17.412Z,31.00
2019-02-23T22:34:49.135Z,22.70
2019-02-23T22:37:20.808Z,24.13
2019-02-23T22:39:52.554Z,24.53
2019-02-23T22:42:24.318Z,24.67
2019-02-23T22:44:56.014Z,23.67
2019-02-23T22:47:27.721Z,30.77
2019-02-23T22:49:59.412Z,31.17
2019-02-23T22:52:31.118Z,22.17
2019-02-23T22:55:02.808Z,28.97
2019-02-23T22:57:40.464Z,29.23
2019-02-23T23:00:10.040Z,24.57
2019-02-23T23:02:41.816Z,25.17
2019-02-23T23:05:13.791Z,28.10
2019-02-23T23:07:45.488Z,28.40
2019-02-23T23:10:17.282Z,24.87
2019-02-23T23:12:49.066Z,28.50
2019-02-23T23:15:20.754Z,22.87
2019-02-23T23:17:52.455Z,26.60
2019-02-23T23:20:24.239Z,26.43
2019-02-23T23:22:55.975Z,30.53
2019-02-23T23:25:27.698Z,25.23
2019-02-23T23:27:59.445Z,28.57
2019-02-23T23:30:31.221Z,26.17
2019-02-23T23:33:03.031Z,25.63
2019-02-23T23:35:34.739Z,25.00
2019-02-23T23:38:06.515Z,27.23
2019-02-23T23:40:38.234Z,31.60
2019-02-23T23:43:09.918Z,26.20
2019-02-23T23:45:41.643Z,26.17
2019-02-23T23:48:13.336Z,31.80
2019-02-23T23:50:45.055Z,22.43
2019-02-23T23:53:16.750Z,26.43
2019-02-23T23:55:48.471Z,28.57
2019-02-23T23:58:20.215Z,23.03
